sensor_id;sensor_type;location;lat;lon;timestamp;P1;durP1;ratioP1;P2;durP2;ratioP2
8708;SDS011;4391;48.678;9.280;2023-05-20T00:02:09;12.13;;;4.80;;
8708;SDS011;4391;48.678;9.280;2023-05-20T00:04:36;11.88;;;4.90;;
8708;SDS011;4391;48.678;9.280;2023-05-20T00:07:04;10.00;;;4.28;;
8708;SDS011;4391;48.678;9.280;2023-05-20T00:09:31;10.55;;;4.50;;
8708;SDS011;4391;48.678;9.280;2023-05-20T00:11:58;11.15;;;5.10;;
8708;SDS011;4391;48.678;9.280;2023-05-20T00:14:26;10.97;;;4.40;;
8708;SDS011;4391;48.678;9.280;2023-05-20T00:16:53;9.40;;;4.70;;
8708;SDS011;4391;48.678;9.280;2023-05-20T00:19:20;10.02;;;4.45;;
8708;SDS011;4391;48.678;9.280;2023-05-20T00:21:47;8.43;;;4.22;;
8708;SDS011;4391;48.678;9.280;2023-05-20T00:24:13;11.82;;;4.55;;
8708;SDS011;4391;48.678;9.280;2023-05-20T00:26:40;11.03;;;4.17;;
8708;SDS011;4391;48.678;9.280;2023-05-20T00:29:07;15.15;;;4.97;;
8708;SDS011;4391;48.678;9.280;2023-05-20T00:31:35;8.25;;;4.20;;
8708;SDS011;4391;48.678;9.280;2023-05-20T00:34:02;9.93;;;4.43;;
8708;SDS011;4391;48.678;9.280;2023-05-20T00:36:29;10.60;;;4.28;;
8708;SDS011;4391;48.678;9.280;2023-05-20T00:38:56;11.27;;;4.30;;
8708;SDS011;4391;48.678;9.280;2023-05-20T00:41:23;10.70;;;4.13;;
8708;SDS011;4391;48.678;9.280;2023-05-20T00:43:51;10.88;;;4.72;;
8708;SDS011;4391;48.678;9.280;2023-05-20T00:46:18;11.93;;;4.38;;
8708;SDS011;4391;48.678;9.280;2023-05-20T00:48:47;16.10;;;4.70;;
8708;SDS011;4391;48.678;9.280;2023-05-20T00:51:14;9.63;;;3.83;;
8708;SDS011;4391;48.678;9.280;2023-05-20T00:53:42;9.25;;;4.30;;
8708;SDS011;4391;48.678;9.280;2023-05-20T00:56:09;12.20;;;4.20;;
8708;SDS011;4391;48.678;9.280;2023-05-20T00:58:37;9.82;;;4.53;;
8708;SDS011;4391;48.678;9.280;2023-05-20T01:01:05;8.18;;;4.40;;
8708;SDS011;4391;48.678;9.280;2023-05-20T01:03:32;8.20;;;4.37;;
8708;SDS011;4391;48.678;9.280;2023-05-20T01:06:00;8.70;;;4.45;;
8708;SDS011;4391;48.678;9.280;2023-05-20T01:08:27;11.32;;;4.38;;
8708;SDS011;4391;48.678;9.280;2023-05-20T01:10:56;8.73;;;4.18;;
8708;SDS011;4391;48.678;9.280;2023-05-20T01:13:29;10.48;;;4.28;;
8708;SDS011;4391;48.678;9.280;2023-05-20T01:16:02;7.83;;;3.67;;
8708;SDS011;4391;48.678;9.280;2023-05-20T01:18:29;8.95;;;4.25;;
8708;SDS011;4391;48.678;9.280;2023-05-20T01:21:00;8.95;;;4.32;;
8708;SDS011;4391;48.678;9.280;2023-05-20T01:23:36;8.85;;;4.22;;
8708;SDS011;4391;48.678;9.280;2023-05-20T01:26:04;8.30;;;4.13;;
8708;SDS011;4391;48.678;9.280;2023-05-20T01:28:31;8.27;;;4.07;;
8708;SDS011;4391;48.678;9.280;2023-05-20T01:30:59;8.80;;;4.20;;
8708;SDS011;4391;48.678;9.280;2023-05-20T01:33:28;7.93;;;4.03;;
8708;SDS011;4391;48.678;9.280;2023-05-20T01:35:56;9.00;;;4.18;;
8708;SDS011;4391;48.678;9.280;2023-05-20T01:38:24;8.38;;;4.30;;
8708;SDS011;4391;48.678;9.280;2023-05-20T01:40:53;12.30;;;4.30;;
8708;SDS011;4391;48.678;9.280;2023-05-20T01:43:22;7.45;;;4.07;;
8708;SDS011;4391;48.678;9.280;2023-05-20T01:45:51;11.63;;;4.60;;
8708;SDS011;4391;48.678;9.280;2023-05-20T01:48:17;8.20;;;4.40;;
8708;SDS011;4391;48.678;9.280;2023-05-20T01:50:44;8.80;;;4.00;;
8708;SDS011;4391;48.678;9.280;2023-05-20T01:53:11;11.20;;;4.57;;
8708;SDS011;4391;48.678;9.280;2023-05-20T01:55:38;8.73;;;4.50;;
8708;SDS011;4391;48.678;9.280;2023-05-20T01:58:06;9.55;;;4.65;;
8708;SDS011;4391;48.678;9.280;2023-05-20T02:00:33;9.13;;;4.40;;
8708;SDS011;4391;48.678;9.280;2023-05-20T02:03:00;9.40;;;4.30;;
8708;SDS011;4391;48.678;9.280;2023-05-20T02:05:28;8.10;;;4.43;;
8708;SDS011;4391;48.678;9.280;2023-05-20T02:07:54;11.02;;;4.97;;
8708;SDS011;4391;48.678;9.280;2023-05-20T02:10:21;10.27;;;4.90;;
8708;SDS011;4391;48.678;9.280;2023-05-20T02:12:48;8.00;;;4.63;;
8708;SDS011;4391;48.678;9.280;2023-05-20T02:15:16;10.65;;;4.50;;
8708;SDS011;4391;48.678;9.280;2023-05-20T02:17:43;12.63;;;4.90;;
8708;SDS011;4391;48.678;9.280;2023-05-20T02:20:11;8.05;;;4.30;;
8708;SDS011;4391;48.678;9.280;2023-05-20T02:22:38;9.07;;;4.30;;
8708;SDS011;4391;48.678;9.280;2023-05-20T02:25:05;10.30;;;4.63;;
8708;SDS011;4391;48.678;9.280;2023-05-20T02:27:33;10.77;;;4.82;;
8708;SDS011;4391;48.678;9.280;2023-05-20T02:30:00;8.97;;;4.50;;
8708;SDS011;4391;48.678;9.280;2023-05-20T02:32:28;11.98;;;4.88;;
8708;SDS011;4391;48.678;9.280;2023-05-20T02:34:55;9.68;;;4.82;;
8708;SDS011;4391;48.678;9.280;2023-05-20T02:37:22;10.95;;;4.25;;
8708;SDS011;4391;48.678;9.280;2023-05-20T02:39:49;8.02;;;4.70;;
8708;SDS011;4391;48.678;9.280;2023-05-20T02:42:16;9.37;;;4.60;;
8708;SDS011;4391;48.678;9.280;2023-05-20T02:44:42;9.65;;;4.75;;
8708;SDS011;4391;48.678;9.280;2023-05-20T02:47:09;9.57;;;4.50;;
8708;SDS011;4391;48.678;9.280;2023-05-20T02:49:38;8.25;;;3.95;;
8708;SDS011;4391;48.678;9.280;2023-05-20T02:52:05;9.75;;;4.38;;
8708;SDS011;4391;48.678;9.280;2023-05-20T02:54:33;8.40;;;4.43;;
8708;SDS011;4391;48.678;9.280;2023-05-20T02:57:00;8.35;;;4.63;;
8708;SDS011;4391;48.678;9.280;2023-05-20T02:59:27;7.75;;;4.68;;
8708;SDS011;4391;48.678;9.280;2023-05-20T03:01:54;7.45;;;4.10;;
8708;SDS011;4391;48.678;9.280;2023-05-20T03:04:21;9.75;;;5.18;;
8708;SDS011;4391;48.678;9.280;2023-05-20T03:06:50;10.83;;;4.70;;
8708;SDS011;4391;48.678;9.280;2023-05-20T03:09:18;9.73;;;4.82;;
8708;SDS011;4391;48.678;9.280;2023-05-20T03:11:44;8.40;;;4.55;;
8708;SDS011;4391;48.678;9.280;2023-05-20T03:14:11;11.95;;;5.40;;
8708;SDS011;4391;48.678;9.280;2023-05-20T03:16:38;9.07;;;5.20;;
8708;SDS011;4391;48.678;9.280;2023-05-20T03:19:05;10.77;;;4.63;;
8708;SDS011;4391;48.678;9.280;2023-05-20T03:21:32;9.48;;;4.78;;
8708;SDS011;4391;48.678;9.280;2023-05-20T03:24:00;7.65;;;4.53;;
8708;SDS011;4391;48.678;9.280;2023-05-20T03:26:27;9.05;;;5.32;;
8708;SDS011;4391;48.678;9.280;2023-05-20T03:28:54;9.70;;;4.78;;
8708;SDS011;4391;48.678;9.280;2023-05-20T03:31:21;9.03;;;4.77;;
8708;SDS011;4391;48.678;9.280;2023-05-20T03:33:48;8.00;;;4.13;;
8708;SDS011;4391;48.678;9.280;2023-05-20T03:36:14;9.27;;;4.70;;
8708;SDS011;4391;48.678;9.280;2023-05-20T03:38:41;9.57;;;4.45;;
8708;SDS011;4391;48.678;9.280;2023-05-20T03:41:10;8.52;;;5.05;;
8708;SDS011;4391;48.678;9.280;2023-05-20T03:43:37;8.73;;;4.70;;
8708;SDS011;4391;48.678;9.280;2023-05-20T03:46:04;9.48;;;5.10;;
8708;SDS011;4391;48.678;9.280;2023-05-20T03:48:31;8.18;;;4.78;;
8708;SDS011;4391;48.678;9.280;2023-05-20T03:50:57;8.13;;;4.43;;
8708;SDS011;4391;48.678;9.280;2023-05-20T03:53:25;9.70;;;5.40;;
8708;SDS011;4391;48.678;9.280;2023-05-20T03:55:52;8.37;;;4.50;;
8708;SDS011;4391;48.678;9.280;2023-05-20T03:58:21;8.85;;;5.18;;
8708;SDS011;4391;48.678;9.280;2023-05-20T04:00:47;8.38;;;4.40;;
8708;SDS011;4391;48.678;9.280;2023-05-20T04:03:14;9.65;;;4.28;;
8708;SDS011;4391;48.678;9.280;2023-05-20T04:05:41;10.23;;;4.85;;
8708;SDS011;4391;48.678;9.280;2023-05-20T04:08:08;9.03;;;4.70;;
8708;SDS011;4391;48.678;9.280;2023-05-20T04:10:37;9.70;;;4.72;;
8708;SDS011;4391;48.678;9.280;2023-05-20T04:13:06;9.68;;;4.38;;
8708;SDS011;4391;48.678;9.280;2023-05-20T04:15:35;8.13;;;4.47;;
8708;SDS011;4391;48.678;9.280;2023-05-20T04:18:02;7.50;;;4.45;;
8708;SDS011;4391;48.678;9.280;2023-05-20T04:20:30;8.50;;;5.10;;
8708;SDS011;4391;48.678;9.280;2023-05-20T04:22:57;9.93;;;5.22;;
8708;SDS011;4391;48.678;9.280;2023-05-20T04:25:24;10.07;;;4.93;;
8708;SDS011;4391;48.678;9.280;2023-05-20T04:27:51;10.77;;;5.07;;
8708;SDS011;4391;48.678;9.280;2023-05-20T04:30:19;10.20;;;4.88;;
8708;SDS011;4391;48.678;9.280;2023-05-20T04:32:48;8.80;;;4.80;;
8708;SDS011;4391;48.678;9.280;2023-05-20T04:35:15;9.60;;;5.60;;
8708;SDS011;4391;48.678;9.280;2023-05-20T04:37:43;9.10;;;5.45;;
8708;SDS011;4391;48.678;9.280;2023-05-20T04:40:12;8.57;;;4.90;;
8708;SDS011;4391;48.678;9.280;2023-05-20T04:42:39;9.80;;;5.00;;
8708;SDS011;4391;48.678;9.280;2023-05-20T04:45:07;8.40;;;4.67;;
8708;SDS011;4391;48.678;9.280;2023-05-20T04:47:34;8.73;;;4.30;;
8708;SDS011;4391;48.678;9.280;2023-05-20T04:50:05;9.57;;;4.20;;
8708;SDS011;4391;48.678;9.280;2023-05-20T04:52:34;9.18;;;4.60;;
8708;SDS011;4391;48.678;9.280;2023-05-20T04:55:02;8.07;;;4.35;;
8708;SDS011;4391;48.678;9.280;2023-05-20T04:57:29;9.50;;;3.97;;
8708;SDS011;4391;48.678;9.280;2023-05-20T04:59:58;7.93;;;3.60;;
8708;SDS011;4391;48.678;9.280;2023-05-20T05:02:26;9.55;;;4.13;;
8708;SDS011;4391;48.678;9.280;2023-05-20T05:04:52;6.72;;;3.90;;
8708;SDS011;4391;48.678;9.280;2023-05-20T05:07:21;7.13;;;3.88;;
8708;SDS011;4391;48.678;9.280;2023-05-20T05:09:47;7.53;;;4.17;;
8708;SDS011;4391;48.678;9.280;2023-05-20T05:12:14;8.20;;;3.97;;
8708;SDS011;4391;48.678;9.280;2023-05-20T05:14:41;7.97;;;3.90;;
8708;SDS011;4391;48.678;9.280;2023-05-20T05:17:08;8.57;;;4.60;;
8708;SDS011;4391;48.678;9.280;2023-05-20T05:19:35;8.70;;;4.13;;
8708;SDS011;4391;48.678;9.280;2023-05-20T05:22:02;6.43;;;3.97;;
8708;SDS011;4391;48.678;9.280;2023-05-20T05:24:30;9.23;;;4.43;;
8708;SDS011;4391;48.678;9.280;2023-05-20T05:26:57;9.70;;;4.20;;
8708;SDS011;4391;48.678;9.280;2023-05-20T05:29:24;8.05;;;4.18;;
8708;SDS011;4391;48.678;9.280;2023-05-20T05:31:51;7.35;;;4.18;;
8708;SDS011;4391;48.678;9.280;2023-05-20T05:34:18;9.37;;;4.20;;
8708;SDS011;4391;48.678;9.280;2023-05-20T05:36:44;7.60;;;4.03;;
8708;SDS011;4391;48.678;9.280;2023-05-20T05:39:11;7.32;;;3.60;;
8708;SDS011;4391;48.678;9.280;2023-05-20T05:41:39;8.35;;;4.00;;
8708;SDS011;4391;48.678;9.280;2023-05-20T05:44:06;8.07;;;4.00;;
8708;SDS011;4391;48.678;9.280;2023-05-20T05:46:33;7.47;;;3.93;;
8708;SDS011;4391;48.678;9.280;2023-05-20T05:49:00;6.97;;;3.70;;
8708;SDS011;4391;48.678;9.280;2023-05-20T05:51:27;7.15;;;4.00;;
8708;SDS011;4391;48.678;9.280;2023-05-20T05:53:54;7.85;;;4.22;;
8708;SDS011;4391;48.678;9.280;2023-05-20T05:56:21;8.40;;;3.90;;
8708;SDS011;4391;48.678;9.280;2023-05-20T05:58:49;7.00;;;3.73;;
8708;SDS011;4391;48.678;9.280;2023-05-20T06:01:16;6.97;;;3.50;;
8708;SDS011;4391;48.678;9.280;2023-05-20T06:03:43;7.22;;;3.97;;
8708;SDS011;4391;48.678;9.280;2023-05-20T06:06:10;7.57;;;3.95;;
8708;SDS011;4391;48.678;9.280;2023-05-20T06:08:36;6.55;;;3.50;;
8708;SDS011;4391;48.678;9.280;2023-05-20T06:11:03;7.83;;;3.67;;
8708;SDS011;4391;48.678;9.280;2023-05-20T06:13:30;6.78;;;3.63;;
8708;SDS011;4391;48.678;9.280;2023-05-20T06:15:58;6.55;;;3.63;;
8708;SDS011;4391;48.678;9.280;2023-05-20T06:18:25;6.97;;;3.22;;
8708;SDS011;4391;48.678;9.280;2023-05-20T06:20:55;5.95;;;3.40;;
8708;SDS011;4391;48.678;9.280;2023-05-20T06:23:22;6.97;;;3.60;;
8708;SDS011;4391;48.678;9.280;2023-05-20T06:25:49;9.57;;;3.65;;
8708;SDS011;4391;48.678;9.280;2023-05-20T06:28:16;6.25;;;3.15;;
8708;SDS011;4391;48.678;9.280;2023-05-20T06:30:44;8.82;;;3.50;;
8708;SDS011;4391;48.678;9.280;2023-05-20T06:33:12;7.43;;;3.40;;
8708;SDS011;4391;48.678;9.280;2023-05-20T06:35:39;6.57;;;3.67;;
8708;SDS011;4391;48.678;9.280;2023-05-20T06:38:07;6.95;;;3.78;;
8708;SDS011;4391;48.678;9.280;2023-05-20T06:40:34;7.88;;;4.07;;
8708;SDS011;4391;48.678;9.280;2023-05-20T06:43:00;7.53;;;3.30;;
8708;SDS011;4391;48.678;9.280;2023-05-20T06:45:27;7.30;;;4.07;;
8708;SDS011;4391;48.678;9.280;2023-05-20T06:47:54;7.70;;;3.57;;
8708;SDS011;4391;48.678;9.280;2023-05-20T06:50:22;6.55;;;3.67;;
8708;SDS011;4391;48.678;9.280;2023-05-20T06:52:52;7.70;;;3.75;;
8708;SDS011;4391;48.678;9.280;2023-05-20T06:55:19;7.05;;;3.85;;
8708;SDS011;4391;48.678;9.280;2023-05-20T06:57:47;7.72;;;3.83;;
8708;SDS011;4391;48.678;9.280;2023-05-20T07:00:14;7.57;;;3.70;;
8708;SDS011;4391;48.678;9.280;2023-05-20T07:02:41;7.80;;;3.75;;
8708;SDS011;4391;48.678;9.280;2023-05-20T07:05:08;7.20;;;3.65;;
8708;SDS011;4391;48.678;9.280;2023-05-20T07:07:37;13.07;;;3.67;;
8708;SDS011;4391;48.678;9.280;2023-05-20T07:10:04;8.77;;;4.13;;
8708;SDS011;4391;48.678;9.280;2023-05-20T07:12:32;7.07;;;3.70;;
8708;SDS011;4391;48.678;9.280;2023-05-20T07:14:59;9.57;;;3.92;;
8708;SDS011;4391;48.678;9.280;2023-05-20T07:17:26;8.23;;;3.95;;
8708;SDS011;4391;48.678;9.280;2023-05-20T07:19:53;6.20;;;3.53;;
8708;SDS011;4391;48.678;9.280;2023-05-20T07:22:20;7.28;;;3.60;;
8708;SDS011;4391;48.678;9.280;2023-05-20T07:24:48;7.03;;;3.67;;
8708;SDS011;4391;48.678;9.280;2023-05-20T07:27:15;7.53;;;3.80;;
8708;SDS011;4391;48.678;9.280;2023-05-20T07:29:42;7.05;;;4.03;;
8708;SDS011;4391;48.678;9.280;2023-05-20T07:32:09;6.82;;;3.72;;
8708;SDS011;4391;48.678;9.280;2023-05-20T07:34:35;6.63;;;3.83;;
8708;SDS011;4391;48.678;9.280;2023-05-20T07:37:02;8.03;;;3.73;;
8708;SDS011;4391;48.678;9.280;2023-05-20T07:39:30;7.90;;;3.83;;
8708;SDS011;4391;48.678;9.280;2023-05-20T07:41:58;9.23;;;3.53;;
8708;SDS011;4391;48.678;9.280;2023-05-20T07:44:25;6.75;;;3.60;;
8708;SDS011;4391;48.678;9.280;2023-05-20T07:46:52;7.72;;;3.95;;
8708;SDS011;4391;48.678;9.280;2023-05-20T07:49:18;6.17;;;3.50;;
8708;SDS011;4391;48.678;9.280;2023-05-20T07:51:45;6.18;;;3.70;;
8708;SDS011;4391;48.678;9.280;2023-05-20T07:54:12;7.43;;;4.20;;
8708;SDS011;4391;48.678;9.280;2023-05-20T07:56:39;7.53;;;4.00;;
8708;SDS011;4391;48.678;9.280;2023-05-20T07:59:07;6.20;;;3.53;;
8708;SDS011;4391;48.678;9.280;2023-05-20T08:01:34;7.40;;;3.77;;
8708;SDS011;4391;48.678;9.280;2023-05-20T08:04:01;5.65;;;3.38;;
8708;SDS011;4391;48.678;9.280;2023-05-20T08:06:28;7.88;;;4.32;;
8708;SDS011;4391;48.678;9.280;2023-05-20T08:08:55;8.05;;;3.92;;
8708;SDS011;4391;48.678;9.280;2023-05-20T08:11:22;7.18;;;4.13;;
8708;SDS011;4391;48.678;9.280;2023-05-20T08:13:49;7.60;;;4.13;;
8708;SDS011;4391;48.678;9.280;2023-05-20T08:16:19;7.43;;;4.05;;
8708;SDS011;4391;48.678;9.280;2023-05-20T08:18:46;7.60;;;3.90;;
8708;SDS011;4391;48.678;9.280;2023-05-20T08:21:13;6.60;;;3.70;;
8708;SDS011;4391;48.678;9.280;2023-05-20T08:23:41;6.70;;;3.85;;
8708;SDS011;4391;48.678;9.280;2023-05-20T08:26:08;7.30;;;3.90;;
8708;SDS011;4391;48.678;9.280;2023-05-20T08:28:35;8.10;;;4.80;;
8708;SDS011;4391;48.678;9.280;2023-05-20T08:31:02;7.00;;;3.90;;
8708;SDS011;4391;48.678;9.280;2023-05-20T08:33:31;6.72;;;3.78;;
8708;SDS011;4391;48.678;9.280;2023-05-20T08:35:58;7.32;;;4.10;;
8708;SDS011;4391;48.678;9.280;2023-05-20T08:38:24;6.93;;;3.50;;
8708;SDS011;4391;48.678;9.280;2023-05-20T08:40:52;5.90;;;3.58;;
8708;SDS011;4391;48.678;9.280;2023-05-20T08:43:20;8.18;;;3.92;;
8708;SDS011;4391;48.678;9.280;2023-05-20T08:45:48;6.70;;;3.45;;
8708;SDS011;4391;48.678;9.280;2023-05-20T08:48:16;5.47;;;3.47;;
8708;SDS011;4391;48.678;9.280;2023-05-20T08:50:46;7.03;;;3.37;;
8708;SDS011;4391;48.678;9.280;2023-05-20T08:53:16;6.20;;;3.53;;
8708;SDS011;4391;48.678;9.280;2023-05-20T08:55:45;6.45;;;3.47;;
8708;SDS011;4391;48.678;9.280;2023-05-20T08:58:14;7.68;;;3.50;;
8708;SDS011;4391;48.678;9.280;2023-05-20T09:00:41;8.60;;;3.70;;
8708;SDS011;4391;48.678;9.280;2023-05-20T09:03:08;10.80;;;3.90;;
8708;SDS011;4391;48.678;9.280;2023-05-20T09:05:35;6.68;;;3.42;;
8708;SDS011;4391;48.678;9.280;2023-05-20T09:08:06;7.47;;;3.60;;
8708;SDS011;4391;48.678;9.280;2023-05-20T09:10:34;7.68;;;3.88;;
8708;SDS011;4391;48.678;9.280;2023-05-20T09:13:02;6.28;;;3.45;;
8708;SDS011;4391;48.678;9.280;2023-05-20T09:15:29;5.93;;;3.47;;
8708;SDS011;4391;48.678;9.280;2023-05-20T09:17:58;6.60;;;3.40;;
8708;SDS011;4391;48.678;9.280;2023-05-20T09:20:26;5.85;;;3.55;;
8708;SDS011;4391;48.678;9.280;2023-05-20T09:22:57;7.80;;;3.75;;
8708;SDS011;4391;48.678;9.280;2023-05-20T09:25:26;7.05;;;3.88;;
8708;SDS011;4391;48.678;9.280;2023-05-20T09:27:53;7.17;;;3.80;;
8708;SDS011;4391;48.678;9.280;2023-05-20T09:30:20;8.65;;;3.60;;
8708;SDS011;4391;48.678;9.280;2023-05-20T09:32:51;6.43;;;3.40;;
8708;SDS011;4391;48.678;9.280;2023-05-20T09:35:19;7.85;;;3.80;;
8708;SDS011;4391;48.678;9.280;2023-05-20T09:37:47;8.65;;;3.83;;
8708;SDS011;4391;48.678;9.280;2023-05-20T09:40:16;7.63;;;3.60;;
8708;SDS011;4391;48.678;9.280;2023-05-20T09:42:49;5.50;;;3.42;;
8708;SDS011;4391;48.678;9.280;2023-05-20T09:45:18;6.88;;;3.53;;
8708;SDS011;4391;48.678;9.280;2023-05-20T09:47:49;6.47;;;3.10;;
8708;SDS011;4391;48.678;9.280;2023-05-20T09:50:17;7.25;;;3.45;;
8708;SDS011;4391;48.678;9.280;2023-05-20T09:52:45;7.93;;;3.23;;
8708;SDS011;4391;48.678;9.280;2023-05-20T09:55:13;9.98;;;3.67;;
8708;SDS011;4391;48.678;9.280;2023-05-20T09:57:41;7.18;;;3.58;;
8708;SDS011;4391;48.678;9.280;2023-05-20T10:00:10;7.38;;;3.65;;
8708;SDS011;4391;48.678;9.280;2023-05-20T10:02:40;8.13;;;3.30;;
8708;SDS011;4391;48.678;9.280;2023-05-20T10:05:09;5.63;;;2.93;;
8708;SDS011;4391;48.678;9.280;2023-05-20T10:07:50;6.53;;;3.20;;
8708;SDS011;4391;48.678;9.280;2023-05-20T10:10:39;7.22;;;2.95;;
8708;SDS011;4391;48.678;9.280;2023-05-20T10:13:16;7.72;;;2.70;;
8708;SDS011;4391;48.678;9.280;2023-05-20T10:15:53;5.57;;;3.00;;
8708;SDS011;4391;48.678;9.280;2023-05-20T10:18:29;6.93;;;3.27;;
8708;SDS011;4391;48.678;9.280;2023-05-20T10:21:13;7.57;;;3.27;;
8708;SDS011;4391;48.678;9.280;2023-05-20T10:23:41;6.70;;;3.03;;
8708;SDS011;4391;48.678;9.280;2023-05-20T10:26:08;6.40;;;3.00;;
8708;SDS011;4391;48.678;9.280;2023-05-20T10:28:35;5.32;;;2.80;;
8708;SDS011;4391;48.678;9.280;2023-05-20T10:31:14;7.53;;;3.15;;
8708;SDS011;4391;48.678;9.280;2023-05-20T10:33:42;6.47;;;3.30;;
8708;SDS011;4391;48.678;9.280;2023-05-20T10:36:20;5.07;;;2.80;;
8708;SDS011;4391;48.678;9.280;2023-05-20T10:38:52;5.75;;;3.05;;
8708;SDS011;4391;48.678;9.280;2023-05-20T10:41:20;5.78;;;3.00;;
8708;SDS011;4391;48.678;9.280;2023-05-20T10:43:58;6.05;;;3.40;;
8708;SDS011;4391;48.678;9.280;2023-05-20T10:46:28;6.53;;;2.73;;
8708;SDS011;4391;48.678;9.280;2023-05-20T10:48:55;6.43;;;2.80;;
8708;SDS011;4391;48.678;9.280;2023-05-20T10:51:22;5.63;;;2.78;;
8708;SDS011;4391;48.678;9.280;2023-05-20T10:53:52;5.57;;;2.80;;
8708;SDS011;4391;48.678;9.280;2023-05-20T10:56:21;5.22;;;3.05;;
8708;SDS011;4391;48.678;9.280;2023-05-20T10:58:49;5.13;;;2.43;;
8708;SDS011;4391;48.678;9.280;2023-05-20T11:01:16;5.00;;;2.85;;
8708;SDS011;4391;48.678;9.280;2023-05-20T11:03:45;4.20;;;2.30;;
8708;SDS011;4391;48.678;9.280;2023-05-20T11:06:12;6.82;;;2.70;;
8708;SDS011;4391;48.678;9.280;2023-05-20T11:08:42;6.78;;;2.90;;
8708;SDS011;4391;48.678;9.280;2023-05-20T11:11:11;4.57;;;2.50;;
8708;SDS011;4391;48.678;9.280;2023-05-20T11:13:39;6.33;;;2.60;;
8708;SDS011;4391;48.678;9.280;2023-05-20T11:16:06;5.47;;;2.80;;
8708;SDS011;4391;48.678;9.280;2023-05-20T11:18:34;5.32;;;2.80;;
8708;SDS011;4391;48.678;9.280;2023-05-20T11:21:02;8.25;;;3.00;;
8708;SDS011;4391;48.678;9.280;2023-05-20T11:23:29;5.85;;;2.70;;
8708;SDS011;4391;48.678;9.280;2023-05-20T11:25:56;5.10;;;2.80;;
8708;SDS011;4391;48.678;9.280;2023-05-20T11:28:23;4.43;;;2.60;;
8708;SDS011;4391;48.678;9.280;2023-05-20T11:30:50;5.45;;;2.72;;
8708;SDS011;4391;48.678;9.280;2023-05-20T11:33:18;5.13;;;2.38;;
8708;SDS011;4391;48.678;9.280;2023-05-20T11:35:45;5.45;;;2.67;;
8708;SDS011;4391;48.678;9.280;2023-05-20T11:38:15;7.40;;;2.53;;
8708;SDS011;4391;48.678;9.280;2023-05-20T11:40:42;7.10;;;2.50;;
8708;SDS011;4391;48.678;9.280;2023-05-20T11:43:11;6.95;;;2.70;;
8708;SDS011;4391;48.678;9.280;2023-05-20T11:45:38;7.35;;;2.70;;
8708;SDS011;4391;48.678;9.280;2023-05-20T11:48:06;7.32;;;2.75;;
8708;SDS011;4391;48.678;9.280;2023-05-20T11:50:34;5.10;;;2.45;;
8708;SDS011;4391;48.678;9.280;2023-05-20T11:53:04;6.00;;;2.47;;
8708;SDS011;4391;48.678;9.280;2023-05-20T11:55:33;7.45;;;2.60;;
8708;SDS011;4391;48.678;9.280;2023-05-20T11:58:09;4.20;;;2.28;;
8708;SDS011;4391;48.678;9.280;2023-05-20T12:00:36;5.50;;;2.40;;
8708;SDS011;4391;48.678;9.280;2023-05-20T12:03:03;5.18;;;2.75;;
8708;SDS011;4391;48.678;9.280;2023-05-20T12:05:30;4.40;;;2.40;;
8708;SDS011;4391;48.678;9.280;2023-05-20T12:07:56;4.97;;;2.60;;
8708;SDS011;4391;48.678;9.280;2023-05-20T12:10:23;8.75;;;3.08;;
8708;SDS011;4391;48.678;9.280;2023-05-20T12:12:54;6.55;;;2.60;;
8708;SDS011;4391;48.678;9.280;2023-05-20T12:15:21;6.22;;;2.80;;
8708;SDS011;4391;48.678;9.280;2023-05-20T12:17:48;5.50;;;3.00;;
8708;SDS011;4391;48.678;9.280;2023-05-20T12:20:17;4.45;;;2.65;;
8708;SDS011;4391;48.678;9.280;2023-05-20T12:22:46;11.00;;;2.78;;
8708;SDS011;4391;48.678;9.280;2023-05-20T12:25:14;7.47;;;3.20;;
8708;SDS011;4391;48.678;9.280;2023-05-20T12:27:43;7.50;;;3.10;;
8708;SDS011;4391;48.678;9.280;2023-05-20T12:30:13;4.90;;;2.70;;
8708;SDS011;4391;48.678;9.280;2023-05-20T12:32:43;6.55;;;2.67;;
8708;SDS011;4391;48.678;9.280;2023-05-20T12:35:11;6.35;;;3.60;;
8708;SDS011;4391;48.678;9.280;2023-05-20T12:37:38;5.45;;;2.78;;
8708;SDS011;4391;48.678;9.280;2023-05-20T12:40:07;5.95;;;2.88;;
8708;SDS011;4391;48.678;9.280;2023-05-20T12:42:35;6.60;;;2.40;;
8708;SDS011;4391;48.678;9.280;2023-05-20T12:45:03;5.90;;;2.30;;
8708;SDS011;4391;48.678;9.280;2023-05-20T12:47:32;5.07;;;2.58;;
8708;SDS011;4391;48.678;9.280;2023-05-20T12:50:00;4.85;;;2.70;;
8708;SDS011;4391;48.678;9.280;2023-05-20T12:52:27;6.03;;;2.40;;
8708;SDS011;4391;48.678;9.280;2023-05-20T12:54:54;6.80;;;2.88;;
8708;SDS011;4391;48.678;9.280;2023-05-20T12:57:22;5.57;;;2.20;;
8708;SDS011;4391;48.678;9.280;2023-05-20T12:59:49;6.17;;;2.90;;
8708;SDS011;4391;48.678;9.280;2023-05-20T13:02:16;4.72;;;2.40;;
8708;SDS011;4391;48.678;9.280;2023-05-20T13:04:45;4.50;;;2.40;;
8708;SDS011;4391;48.678;9.280;2023-05-20T13:07:12;5.97;;;2.47;;
8708;SDS011;4391;48.678;9.280;2023-05-20T13:09:39;6.55;;;2.42;;
8708;SDS011;4391;48.678;9.280;2023-05-20T13:12:08;5.93;;;2.60;;
8708;SDS011;4391;48.678;9.280;2023-05-20T13:14:35;4.80;;;2.23;;
8708;SDS011;4391;48.678;9.280;2023-05-20T13:17:02;4.85;;;2.70;;
8708;SDS011;4391;48.678;9.280;2023-05-20T13:19:29;5.43;;;2.70;;
8708;SDS011;4391;48.678;9.280;2023-05-20T13:21:57;6.18;;;2.70;;
8708;SDS011;4391;48.678;9.280;2023-05-20T13:24:24;4.85;;;2.53;;
8708;SDS011;4391;48.678;9.280;2023-05-20T13:26:51;4.60;;;2.63;;
8708;SDS011;4391;48.678;9.280;2023-05-20T13:29:18;5.95;;;2.80;;
8708;SDS011;4391;48.678;9.280;2023-05-20T13:31:45;7.82;;;2.90;;
8708;SDS011;4391;48.678;9.280;2023-05-20T13:34:12;5.43;;;2.70;;
8708;SDS011;4391;48.678;9.280;2023-05-20T13:36:39;6.65;;;2.88;;
8708;SDS011;4391;48.678;9.280;2023-05-20T13:39:07;4.40;;;2.40;;
8708;SDS011;4391;48.678;9.280;2023-05-20T13:41:34;5.47;;;2.30;;
8708;SDS011;4391;48.678;9.280;2023-05-20T13:44:01;5.70;;;2.45;;
8708;SDS011;4391;48.678;9.280;2023-05-20T13:46:28;7.20;;;2.50;;
8708;SDS011;4391;48.678;9.280;2023-05-20T13:48:55;7.10;;;2.53;;
8708;SDS011;4391;48.678;9.280;2023-05-20T13:51:22;9.47;;;2.80;;
8708;SDS011;4391;48.678;9.280;2023-05-20T13:53:49;4.15;;;2.20;;
8708;SDS011;4391;48.678;9.280;2023-05-20T13:56:17;4.95;;;2.45;;
8708;SDS011;4391;48.678;9.280;2023-05-20T13:58:45;7.88;;;2.70;;
8708;SDS011;4391;48.678;9.280;2023-05-20T14:01:12;4.78;;;2.28;;
8708;SDS011;4391;48.678;9.280;2023-05-20T14:03:39;4.00;;;2.17;;
8708;SDS011;4391;48.678;9.280;2023-05-20T14:06:06;7.57;;;2.20;;
8708;SDS011;4391;48.678;9.280;2023-05-20T14:08:34;5.28;;;2.42;;
8708;SDS011;4391;48.678;9.280;2023-05-20T14:11:00;5.97;;;2.10;;
8708;SDS011;4391;48.678;9.280;2023-05-20T14:13:29;4.88;;;2.17;;
8708;SDS011;4391;48.678;9.280;2023-05-20T14:15:55;6.85;;;2.22;;
8708;SDS011;4391;48.678;9.280;2023-05-20T14:18:22;4.43;;;2.20;;
8708;SDS011;4391;48.678;9.280;2023-05-20T14:20:49;3.92;;;1.90;;
8708;SDS011;4391;48.678;9.280;2023-05-20T14:23:16;6.03;;;2.28;;
8708;SDS011;4391;48.678;9.280;2023-05-20T14:25:43;4.10;;;2.20;;
8708;SDS011;4391;48.678;9.280;2023-05-20T14:28:10;4.82;;;2.63;;
8708;SDS011;4391;48.678;9.280;2023-05-20T14:30:38;5.88;;;2.53;;
8708;SDS011;4391;48.678;9.280;2023-05-20T14:33:04;5.13;;;2.37;;
8708;SDS011;4391;48.678;9.280;2023-05-20T14:35:31;5.85;;;2.53;;
8708;SDS011;4391;48.678;9.280;2023-05-20T14:37:58;4.32;;;2.30;;
8708;SDS011;4391;48.678;9.280;2023-05-20T14:40:25;5.05;;;2.40;;
8708;SDS011;4391;48.678;9.280;2023-05-20T14:42:52;6.38;;;2.47;;
8708;SDS011;4391;48.678;9.280;2023-05-20T14:45:19;6.97;;;2.17;;
8708;SDS011;4391;48.678;9.280;2023-05-20T14:47:47;4.88;;;2.13;;
8708;SDS011;4391;48.678;9.280;2023-05-20T14:50:14;4.75;;;2.40;;
8708;SDS011;4391;48.678;9.280;2023-05-20T14:52:40;6.45;;;2.55;;
8708;SDS011;4391;48.678;9.280;2023-05-20T14:55:07;6.05;;;2.05;;
8708;SDS011;4391;48.678;9.280;2023-05-20T14:57:34;4.47;;;2.47;;
8708;SDS011;4391;48.678;9.280;2023-05-20T15:00:01;5.53;;;2.17;;
8708;SDS011;4391;48.678;9.280;2023-05-20T15:02:29;4.00;;;2.00;;
8708;SDS011;4391;48.678;9.280;2023-05-20T15:04:57;6.30;;;2.40;;
8708;SDS011;4391;48.678;9.280;2023-05-20T15:07:24;6.45;;;2.10;;
8708;SDS011;4391;48.678;9.280;2023-05-20T15:09:51;6.57;;;2.30;;
8708;SDS011;4391;48.678;9.280;2023-05-20T15:12:20;4.25;;;2.22;;
8708;SDS011;4391;48.678;9.280;2023-05-20T15:14:47;4.82;;;2.33;;
8708;SDS011;4391;48.678;9.280;2023-05-20T15:17:14;6.20;;;2.40;;
8708;SDS011;4391;48.678;9.280;2023-05-20T15:19:41;4.88;;;2.40;;